Time;durP1;ratioP1;P1;durP2;ratioP2;P2;SDS_P1;SDS_P2;PMS_P1;PMS_P2;Temp;Humidity;BMP_temperature;BMP_pressure;BME280_temperature;BME280_humidity;BME280_pressure;Samples;Min_cycle;Max_cycle;Signal;HPM_P1;HPM_P2
2020/12/23 00:00:42;;;;;;;;;;;;;;;;;;2055091;28;7046;-65
2020/12/23 00:01:44;;;;;;;;;;;;;;;;;;2058339;28;7021;-65
2020/12/23 00:02:46;;;;;;;;;;;;;;;;;;2058465;28;7009;-65
2020/12/23 00:03:48;;;;;;;;;;;;;;;;;;2056671;28;7096;-66
2020/12/23 00:04:50;;;;;;;;;;;;;;;;;;2058006;28;7013;-65
2020/12/23 00:05:52;;;;;;;;;;;;;;;;;;2056820;28;7014;-65
2020/12/23 00:06:55;;;;;;;;;;;;;;;;;;2055472;28;8052;-65
2020/12/23 00:07:57;;;;;;;;;;;;;;;;;;2054949;28;7013;-66
2020/12/23 00:09:00;;;;;;;;;;;;;;;;;;2057958;28;7319;-65
2020/12/23 00:10:04;;;;;;;;;;;;;;;;;;2056883;28;7093;-65
2020/12/23 00:11:06;;;;;;;;;;;;;;;;;;2056686;28;7051;-65
2020/12/23 00:12:08;;;;;;;;;;;;;;;;;;2056030;28;7409;-65
2020/12/23 00:13:10;;;;;;;;;;;;;;;;;;2056556;28;7093;-65
2020/12/23 00:14:12;;;;;;;;;;;;;;;;;;2059581;28;7050;-65
2020/12/23 00:15:14;;;;;;;;;;;;;;;;;;2056852;28;7131;-65
2020/12/23 00:16:16;;;;;;;;;;;;;;;;;;2059121;28;7137;-66
2020/12/23 00:17:18;;;;;;;;;;;;;;;;;;2058451;28;8016;-66
2020/12/23 00:18:20;;;;;;;;;;;;;;;;;;2061466;28;7101;-67
2020/12/23 00:19:22;;;;;;;;;;;;;;;;;;2055194;28;7121;-65
2020/12/23 00:20:24;;;;;;;;;;;;;;;;;;2057080;28;7014;-65
2020/12/23 00:21:27;;;;;;;;;;;;;;;;;;2058947;28;7440;-64
2020/12/23 00:22:32;;;;;;;;;;;;;;;;;;2062678;28;6997;-66
2020/12/23 00:23:35;;;;;;;;;;;;;;;;;;2060341;28;7088;-65
2020/12/23 00:24:37;;;;;;;;;;;;;;;;;;2059736;28;7031;-65
2020/12/23 00:25:39;;;;;;;;;;;;;;;;;;2060078;28;7046;-64
2020/12/23 00:26:45;;;;;;;;;;;;;;;;;;2057481;28;7112;-65
2020/12/23 00:27:47;;;;;;;;;;;;;;;;;;2056100;28;7025;-66
2020/12/23 00:28:49;;;;;;;;;;;;;;;;;;2060487;28;8136;-65
2020/12/23 00:29:51;;;;;;;;;;;;;;;;;;2059148;28;7060;-65
2020/12/23 00:30:53;;;;;;;;;;;;;;;;;;2059754;28;7144;-65
2020/12/23 00:32:01;;;;;;;;;;;;;;;;;;2056499;28;7117;-67
2020/12/23 00:33:03;;;;;;;;;;;;;;;;;;2058597;28;7093;-64
2020/12/23 00:34:05;;;;;;;;;;;;;;;;;;2055990;28;7018;-66
2020/12/23 00:35:07;;;;;;;;;;;;;;;;;;2058735;28;7161;-66
2020/12/23 00:36:14;;;;;;;;;;;;;;;;;;2058363;28;7053;-65
2020/12/23 00:37:17;;;;;;;;;;;;;;;;;;2058501;28;7101;-65
2020/12/23 00:38:19;;;;;;;;;;;;;;;;;;2057004;28;7097;-65
2020/12/23 00:39:20;;;;;;;;;;;;;;;;;;2056681;28;7053;-65
2020/12/23 00:40:22;;;;;;;;;;;;;;;;;;2057911;28;7089;-64
2020/12/23 00:41:24;;;;;;;;;;;;;;;;;;2056606;28;7108;-65
2020/12/23 00:42:27;;;;;;;;;;;;;;;;;;2058852;28;7046;-65
2020/12/23 00:43:28;;;;;;;;;;;;;;;;;;2055395;28;7025;-65
2020/12/23 00:44:31;;;;;;;;;;;;;;;;;;2056005;28;7088;-65
2020/12/23 00:45:32;;;;;;;;;;;;;;;;;;2059251;28;7022;-66
2020/12/23 00:46:35;;;;;;;;;;;;;;;;;;2056984;28;7117;-65
2020/12/23 00:47:37;;;;;;;;;;;;;;;;;;2056653;28;7010;-66
2020/12/23 00:48:40;;;;;;;;;;;;;;;;;;2059828;28;7113;-66
2020/12/23 00:49:42;;;;;;;;;;;;;;;;;;2058527;28;7014;-64
2020/12/23 00:50:44;;;;;;;;;;;;;;;;;;2057347;28;7025;-65
2020/12/23 00:51:48;;;;;;;;;;;;;;;;;;2056348;28;7113;-66
2020/12/23 00:52:50;;;;;;;;;;;;;;;;;;2054736;28;7080;-65
2020/12/23 00:53:52;;;;;;;;;;;;;;;;;;2055290;28;7010;-66
2020/12/23 00:54:54;;;;;;;;;;;;;;;;;;2061200;28;7009;-66
2020/12/23 00:55:56;;;;;;;;;;;;;;;;;;2063548;28;7046;-65
2020/12/23 00:56:58;;;;;;;;;;;;;;;;;;2057776;28;7010;-66
2020/12/23 00:57:59;;;;;;;;;;;;;;;;;;2060659;28;7025;-67
2020/12/23 00:59:01;;;;;;;;;;;;;;;;;;2060196;28;7300;-65
2020/12/23 01:00:05;;;;;;;;;;;;;;;;;;2059880;28;7014;-66
2020/12/23 01:01:07;;;;;;;;;;;;;;;;;;2059125;28;7018;-65
2020/12/23 01:02:19;;;;;;;;;;;;;;;;;;2053860;28;7277;-65
2020/12/23 01:03:21;;;;;;;;;;;;;;;;;;2059147;28;7113;-66
2020/12/23 01:04:23;;;;;;;;;;;;;;;;;;2061115;28;7026;-65
2020/12/23 01:05:25;;;;;;;;;;;;;;;;;;2058371;28;7010;-65
2020/12/23 01:06:27;;;;;;;;;;;;;;;;;;2063280;28;7026;-66
2020/12/23 01:07:29;;;;;;;;;;;;;;;;;;2056342;28;7097;-66
2020/12/23 01:08:31;;;;;;;;;;;;;;;;;;2059371;28;7042;-65
2020/12/23 01:09:33;;;;;;;;;;;;;;;;;;2062812;28;7042;-65
2020/12/23 01:10:35;;;;;;;;;;;;;;;;;;2058206;28;7009;-65
2020/12/23 01:11:37;;;;;;;;;;;;;;;;;;2054895;28;7097;-65
2020/12/23 01:12:39;;;;;;;;;;;;;;;;;;2055234;28;7017;-64
2020/12/23 01:13:41;;;;;;;;;;;;;;;;;;2059134;28;8078;-66
2020/12/23 01:14:43;;;;;;;;;;;;;;;;;;2055329;28;7380;-66
2020/12/23 01:15:45;;;;;;;;;;;;;;;;;;2055318;28;7034;-64
2020/12/23 01:16:47;;;;;;;;;;;;;;;;;;2054945;28;7096;-64
2020/12/23 01:17:48;;;;;;;;;;;;;;;;;;2055633;28;7014;-65
2020/12/23 01:18:50;;;;;;;;;;;;;;;;;;2059813;28;7092;-64
2020/12/23 01:19:52;;;;;;;;;;;;;;;;;;2056687;28;8044;-65
2020/12/23 01:20:54;;;;;;;;;;;;;;;;;;2058632;28;7013;-66
2020/12/23 01:21:56;;;;;;;;;;;;;;;;;;2062910;28;7050;-64
2020/12/23 01:22:59;;;;;;;;;;;;;;;;;;2063130;28;7010;-65
2020/12/23 01:24:00;;;;;;;;;;;;;;;;;;2059979;28;7029;-65
2020/12/23 01:25:03;;;;;;;;;;;;;;;;;;2055178;28;7092;-64
2020/12/23 01:26:05;;;;;;;;;;;;;;;;;;2062161;28;7241;-66
2020/12/23 01:27:06;;;;;;;;;;;;;;;;;;2058138;28;7054;-65
2020/12/23 01:28:08;;;;;;;;;;;;;;;;;;2059988;28;7152;-66
2020/12/23 01:29:10;;;;;;;;;;;;;;;;;;2061403;28;8024;-66
2020/12/23 01:30:14;;;;;;;;;;;;;;;;;;2058623;28;7093;-64
2020/12/23 01:31:16;;;;;;;;;;;;;;;;;;2060804;28;7110;-63
2020/12/23 01:32:36;;;;;;;;;;;;;;;;;;2060486;28;7093;-65
2020/12/23 01:33:38;;;;;;;;;;;;;;;;;;2056761;28;7128;-65
2020/12/23 01:34:41;;;;;;;;;;;;;;;;;;2058021;28;8104;-66
2020/12/23 01:35:43;;;;;;;;;;;;;;;;;;2057339;28;7042;-66
2020/12/23 01:36:49;;;;;;;;;;;;;;;;;;2059336;28;7089;-64
2020/12/23 01:37:51;;;;;;;;;;;;;;;;;;2054185;28;8163;-66
2020/12/23 01:38:52;;;;;;;;;;;;;;;;;;2061082;28;7114;-64
2020/12/23 01:39:54;;;;;;;;;;;;;;;;;;2063483;28;8040;-64
2020/12/23 01:40:58;;;;;;;;;;;;;;;;;;2058778;28;7010;-66
2020/12/23 01:42:00;;;;;;;;;;;;;;;;;;2062558;28;7009;-65
2020/12/23 01:43:02;;;;;;;;;;;;;;;;;;2056658;28;7030;-66
2020/12/23 01:44:04;;;;;;;;;;;;;;;;;;2055445;28;7046;-65
2020/12/23 01:45:06;;;;;;;;;;;;;;;;;;2060673;28;7010;-65
2020/12/23 01:46:08;;;;;;;;;;;;;;;;;;2058933;28;7009;-66
2020/12/23 01:47:16;;;;;;;;;;;;;;;;;;2054881;28;7005;-67
2020/12/23 01:48:20;;;;;;;;;;;;;;;;;;2060863;28;7147;-66
2020/12/23 01:49:22;;;;;;;;;;;;;;;;;;2060384;28;7046;-66
2020/12/23 01:50:32;;;;;;;;;;;;;;;;;;2057561;28;8044;-65
2020/12/23 01:51:35;;;;;;;;;;;;;;;;;;2055072;28;7046;-66
2020/12/23 01:52:37;;;;;;;;;;;;;;;;;;2060782;28;7108;-64
2020/12/23 01:53:39;;;;;;;;;;;;;;;;;;2062024;28;7014;-65
2020/12/23 01:54:46;;;;;;;;;;;;;;;;;;2062816;28;7092;-64
2020/12/23 01:55:48;;;;;;;;;;;;;;;;;;2058522;28;7046;-65
2020/12/23 01:56:54;;;;;;;;;;;;;;;;;;2062757;28;7005;-65
2020/12/23 01:57:56;;;;;;;;;;;;;;;;;;2057849;28;7172;-66
2020/12/23 01:58:58;;;;;;;;;;;;;;;;;;2060593;28;7084;-66
2020/12/23 02:00:01;;;;;;;;;;;;;;;;;;2055229;28;7006;-65
2020/12/23 02:01:04;;;;;;;;;;;;;;;;;;2055684;28;7022;-67
2020/12/23 02:02:27;;;;;;;;;;;;;;;;;;2054740;28;8035;-66
2020/12/23 02:03:32;;;;;;;;;;;;;;;;;;2056930;28;8001;-66
2020/12/23 02:04:37;;;;;;;;;;;;;;;;;;2059341;28;7092;-66
2020/12/23 02:05:41;;;;;;;;;;;;;;;;;;2058088;28;7006;-66
2020/12/23 02:06:46;;;;;;;;;;;;;;;;;;2055121;28;7005;-65
2020/12/23 02:07:49;;;;;;;;;;;;;;;;;;2063016;28;7010;-65
2020/12/23 02:08:51;;;;;;;;;;;;;;;;;;2058461;28;7045;-66
2020/12/23 02:09:54;;;;;;;;;;;;;;;;;;2062146;28;7050;-66
2020/12/23 02:10:56;;;;;;;;;;;;;;;;;;2059679;28;7046;-66
2020/12/23 02:12:00;;;;;;;;;;;;;;;;;;2053776;28;7046;-64
2020/12/23 02:13:02;;;;;;;;;;;;;;;;;;2055813;28;7006;-65
2020/12/23 02:14:04;;;;;;;;;;;;;;;;;;2054586;28;7129;-64
2020/12/23 02:15:10;;;;;;;;;;;;;;;;;;2054829;28;7010;-66
2020/12/23 02:16:13;;;;;;;;;;;;;;;;;;2054548;28;7042;-65
2020/12/23 02:17:15;;;;;;;;;;;;;;;;;;2060531;28;7046;-65
2020/12/23 02:18:17;;;;;;;;;;;;;;;;;;2053544;28;7013;-65
2020/12/23 02:19:22;;;;;;;;;;;;;;;;;;2059890;28;7034;-66
2020/12/23 02:20:25;;;;;;;;;;;;;;;;;;2053663;28;7043;-66
2020/12/23 02:21:27;;;;;;;;;;;;;;;;;;2059082;28;7018;-67
2020/12/23 02:22:30;;;;;;;;;;;;;;;;;;2058714;28;7996;-65
2020/12/23 02:23:32;;;;;;;;;;;;;;;;;;2055257;28;7042;-65
2020/12/23 02:24:36;;;;;;;;;;;;;;;;;;2059308;28;7010;-63
2020/12/23 02:25:40;;;;;;;;;;;;;;;;;;2059109;28;7014;-66
2020/12/23 02:26:42;;;;;;;;;;;;;;;;;;2056419;28;7005;-65
2020/12/23 02:27:44;;;;;;;;;;;;;;;;;;2058866;28;7010;-65
2020/12/23 02:28:49;;;;;;;;;;;;;;;;;;2059943;28;7002;-65
2020/12/23 02:29:53;;;;;;;;;;;;;;;;;;2054523;28;7114;-65
2020/12/23 02:31:00;;;;;;;;;;;;;;;;;;2055751;28;7010;-65
2020/12/23 02:32:02;;;;;;;;;;;;;;;;;;2058678;28;8017;-65
2020/12/23 02:33:16;;;;;;;;;;;;;;;;;;2056124;28;7097;-65
2020/12/23 02:34:18;;;;;;;;;;;;;;;;;;2055635;28;7106;-64
2020/12/23 02:35:20;;;;;;;;;;;;;;;;;;2054281;28;7183;-66
2020/12/23 02:36:22;;;;;;;;;;;;;;;;;;2061556;28;7021;-65
2020/12/23 02:37:24;;;;;;;;;;;;;;;;;;2056950;28;7092;-65
2020/12/23 02:38:26;;;;;;;;;;;;;;;;;;2060009;28;7025;-64
2020/12/23 02:39:27;;;;;;;;;;;;;;;;;;2059954;28;7018;-64
2020/12/23 02:40:29;;;;;;;;;;;;;;;;;;2055730;28;7046;-64
2020/12/23 02:41:31;;;;;;;;;;;;;;;;;;2056914;28;7030;-64
2020/12/23 02:42:33;;;;;;;;;;;;;;;;;;2058810;28;7092;-64
2020/12/23 02:43:35;;;;;;;;;;;;;;;;;;2059232;28;7103;-65
2020/12/23 02:44:37;;;;;;;;;;;;;;;;;;2057865;28;7013;-65
2020/12/23 02:45:39;;;;;;;;;;;;;;;;;;2055844;28;7372;-65
2020/12/23 02:46:44;;;;;;;;;;;;;;;;;;2061350;28;7124;-65
2020/12/23 02:47:49;;;;;;;;;;;;;;;;;;2055619;28;7097;-66
2020/12/23 02:48:51;;;;;;;;;;;;;;;;;;2056184;28;7122;-66
2020/12/23 02:49:53;;;;;;;;;;;;;;;;;;2057164;28;7042;-63
2020/12/23 02:51:00;;;;;;;;;;;;;;;;;;2058976;28;7118;-65
2020/12/23 02:52:03;;;;;;;;;;;;;;;;;;2058789;28;8055;-66
2020/12/23 02:53:07;;;;;;;;;;;;;;;;;;2057415;28;7104;-66
2020/12/23 02:54:09;;;;;;;;;;;;;;;;;;2058792;28;7014;-66
2020/12/23 02:55:17;;;;;;;;;;;;;;;;;;2061553;28;8155;-66
2020/12/23 02:56:24;;;;;;;;;;;;;;;;;;2056133;28;7092;-66
2020/12/23 02:57:26;;;;;;;;;;;;;;;;;;2060601;28;7114;-65
2020/12/23 02:58:28;;;;;;;;;;;;;;;;;;2059157;28;7013;-65
2020/12/23 02:59:30;;;;;;;;;;;;;;;;;;2061959;28;7014;-65
2020/12/23 03:00:32;;;;;;;;;;;;;;;;;;2055900;28;7050;-65
2020/12/23 03:01:34;;;;;;;;;;;;;;;;;;2062092;28;7104;-65
2020/12/23 03:02:36;;;;;;;;;;;;;;;;;;2060322;28;7009;-65
2020/12/23 03:03:38;;;;;;;;;;;;;;;;;;2056411;28;8028;-64
2020/12/23 03:04:40;;;;;;;;;;;;;;;;;;2055808;28;7006;-65
2020/12/23 03:05:43;;;;;;;;;;;;;;;;;;2054384;28;7947;-66
2020/12/23 03:06:45;;;;;;;;;;;;;;;;;;2057426;28;7093;-64
2020/12/23 03:07:46;;;;;;;;;;;;;;;;;;2054643;28;7105;-66
2020/12/23 03:08:48;;;;;;;;;;;;;;;;;;2058106;28;7014;-65
2020/12/23 03:09:50;;;;;;;;;;;;;;;;;;2054510;28;7058;-67
2020/12/23 03:10:52;;;;;;;;;;;;;;;;;;2053636;28;7106;-64
2020/12/23 03:11:54;;;;;;;;;;;;;;;;;;2058099;28;7089;-66
2020/12/23 03:12:56;;;;;;;;;;;;;;;;;;2062161;28;7109;-66
2020/12/23 03:13:58;;;;;;;;;;;;;;;;;;2054755;28;7085;-65
2020/12/23 03:15:01;;;;;;;;;;;;;;;;;;2058291;28;7153;-65
2020/12/23 03:16:03;;;;;;;;;;;;;;;;;;2059577;28;7105;-66
2020/12/23 03:17:04;;;;;;;;;;;;;;;;;;2061722;28;7085;-64
2020/12/23 03:18:06;;;;;;;;;;;;;;;;;;2054517;28;7046;-65
2020/12/23 03:19:11;;;;;;;;;;;;;;;;;;2055396;28;7010;-67
2020/12/23 03:20:16;;;;;;;;;;;;;;;;;;2058331;28;7140;-66
2020/12/23 03:21:18;;;;;;;;;;;;;;;;;;2057222;28;7026;-65
2020/12/23 03:22:21;;;;;;;;;;;;;;;;;;2059137;28;7042;-66
2020/12/23 03:23:23;;;;;;;;;;;;;;;;;;2058784;28;7110;-65
2020/12/23 03:24:25;;;;;;;;;;;;;;;;;;2059443;28;7010;-65
2020/12/23 03:25:27;;;;;;;;;;;;;;;;;;2060967;28;7030;-65
2020/12/23 03:26:29;;;;;;;;;;;;;;;;;;2053890;28;7074;-66
2020/12/23 03:27:34;;;;;;;;;;;;;;;;;;2056974;28;7093;-65
2020/12/23 03:28:36;;;;;;;;;;;;;;;;;;2060720;28;7022;-65
2020/12/23 03:29:38;;;;;;;;;;;;;;;;;;2060540;28;7089;-66
2020/12/23 03:30:40;;;;;;;;;;;;;;;;;;2055884;28;7966;-65
2020/12/23 03:31:42;;;;;;;;;;;;;;;;;;2057195;28;7101;-65
2020/12/23 03:32:44;;;;;;;;;;;;;;;;;;2057341;28;7084;-66
2020/12/23 03:33:53;;;;;;;;;;;;;;;;;;2054531;28;7009;-66
2020/12/23 03:34:57;;;;;;;;;;;;;;;;;;2058176;28;7010;-63
2020/12/23 03:35:59;;;;;;;;;;;;;;;;;;2054805;28;7009;-67
2020/12/23 03:37:04;;;;;;;;;;;;;;;;;;2058261;28;8064;-64
2020/12/23 03:38:09;;;;;;;;;;;;;;;;;;2058310;28;7093;-65
2020/12/23 03:39:11;;;;;;;;;;;;;;;;;;2058475;28;7085;-65
2020/12/23 03:40:13;;;;;;;;;;;;;;;;;;2055894;28;7010;-65
2020/12/23 03:41:16;;;;;;;;;;;;;;;;;;2060269;28;7025;-66
2020/12/23 03:42:17;;;;;;;;;;;;;;;;;;2059912;28;7991;-65
2020/12/23 03:43:20;;;;;;;;;;;;;;;;;;2058905;28;7009;-64
2020/12/23 03:44:22;;;;;;;;;;;;;;;;;;2055586;28;7029;-65
2020/12/23 03:45:24;;;;;;;;;;;;;;;;;;2056206;28;7002;-64
2020/12/23 03:46:26;;;;;;;;;;;;;;;;;;2055841;28;7967;-65
2020/12/23 03:47:28;;;;;;;;;;;;;;;;;;2059939;28;7084;-66
2020/12/23 03:48:29;;;;;;;;;;;;;;;;;;2056976;28;8055;-65
2020/12/23 03:49:31;;;;;;;;;;;;;;;;;;2054476;28;7303;-65
2020/12/23 03:50:33;;;;;;;;;;;;;;;;;;2060144;28;7014;-65
2020/12/23 03:51:35;;;;;;;;;;;;;;;;;;2057849;28;7010;-65
2020/12/23 03:52:37;;;;;;;;;;;;;;;;;;2054412;28;7051;-65
2020/12/23 03:53:42;;;;;;;;;;;;;;;;;;2058828;28;7301;-65
2020/12/23 03:54:44;;;;;;;;;;;;;;;;;;2058966;28;8040;-66
2020/12/23 03:55:45;;;;;;;;;;;;;;;;;;2054215;28;7010;-66
2020/12/23 03:56:47;;;;;;;;;;;;;;;;;;2060657;28;7157;-66
2020/12/23 03:57:49;;;;;;;;;;;;;;;;;;2053322;28;7128;-65
2020/12/23 03:58:51;;;;;;;;;;;;;;;;;;2056728;28;7104;-66
2020/12/23 03:59:53;;;;;;;;;;;;;;;;;;2053935;28;7155;-65
2020/12/23 04:00:55;;;;;;;;;;;;;;;;;;2053625;28;7092;-66
2020/12/23 04:01:57;;;;;;;;;;;;;;;;;;2058835;28;7100;-65
2020/12/23 04:02:59;;;;;;;;;;;;;;;;;;2061000;28;7009;-65
2020/12/23 04:04:11;;;;;;;;;;;;;;;;;;2058005;28;7018;-66
2020/12/23 04:05:13;;;;;;;;;;;;;;;;;;2055009;28;7093;-65
2020/12/23 04:06:15;;;;;;;;;;;;;;;;;;2061365;28;7102;-66
2020/12/23 04:07:17;;;;;;;;;;;;;;;;;;2059985;28;7013;-66
2020/12/23 04:08:19;;;;;;;;;;;;;;;;;;2063405;28;7286;-64
2020/12/23 04:09:21;;;;;;;;;;;;;;;;;;2059321;28;7093;-65
2020/12/23 04:10:23;;;;;;;;;;;;;;;;;;2054341;28;7097;-64
2020/12/23 04:11:25;;;;;;;;;;;;;;;;;;2056031;28;7013;-66
2020/12/23 04:12:27;;;;;;;;;;;;;;;;;;2060415;28;7041;-67
2020/12/23 04:13:29;;;;;;;;;;;;;;;;;;2060055;28;8032;-65
2020/12/23 04:14:30;;;;;;;;;;;;;;;;;;2057028;28;7014;-65
2020/12/23 04:15:32;;;;;;;;;;;;;;;;;;2060001;28;7014;-65
2020/12/23 04:16:34;;;;;;;;;;;;;;;;;;2057875;28;7121;-65
2020/12/23 04:17:37;;;;;;;;;;;;;;;;;;2059631;28;7053;-65
2020/12/23 04:18:39;;;;;;;;;;;;;;;;;;2060314;28;7017;-65
2020/12/23 04:19:41;;;;;;;;;;;;;;;;;;2060705;28;7009;-65
2020/12/23 04:20:43;;;;;;;;;;;;;;;;;;2061974;28;7324;-66
2020/12/23 04:21:45;;;;;;;;;;;;;;;;;;2060834;28;8048;-65
2020/12/23 04:22:47;;;;;;;;;;;;;;;;;;2062755;28;7010;-65
2020/12/23 04:23:49;;;;;;;;;;;;;;;;;;2057272;28;7053;-67
2020/12/23 04:24:51;;;;;;;;;;;;;;;;;;2057294;28;7109;-66
2020/12/23 04:25:52;;;;;;;;;;;;;;;;;;2055320;28;7109;-66
2020/12/23 04:26:54;;;;;;;;;;;;;;;;;;2056233;28;7089;-66
2020/12/23 04:27:56;;;;;;;;;;;;;;;;;;2060109;28;7013;-65
2020/12/23 04:28:58;;;;;;;;;;;;;;;;;;2059370;28;7116;-66
2020/12/23 04:30:00;;;;;;;;;;;;;;;;;;2059691;28;7102;-66
2020/12/23 04:31:02;;;;;;;;;;;;;;;;;;2059380;28;7092;-65
2020/12/23 04:32:04;;;;;;;;;;;;;;;;;;2059732;28;7084;-66
2020/12/23 04:33:06;;;;;;;;;;;;;;;;;;2059863;28;8084;-66
2020/12/23 04:34:09;;;;;;;;;;;;;;;;;;2063020;28;7409;-65
2020/12/23 04:35:11;;;;;;;;;;;;;;;;;;2059533;28;7154;-64
2020/12/23 04:36:13;;;;;;;;;;;;;;;;;;2059226;28;7014;-66
2020/12/23 04:37:15;;;;;;;;;;;;;;;;;;2060902;28;7029;-65
2020/12/23 04:38:17;;;;;;;;;;;;;;;;;;2062311;28;7026;-65
2020/12/23 04:39:19;;;;;;;;;;;;;;;;;;2055731;28;7089;-66
2020/12/23 04:40:21;;;;;;;;;;;;;;;;;;2058477;28;7045;-66
2020/12/23 04:41:26;;;;;;;;;;;;;;;;;;2049477;28;7129;-65
2020/12/23 04:42:28;;;;;;;;;;;;;;;;;;2047329;28;7013;-66
2020/12/23 04:43:30;;;;;;;;;;;;;;;;;;2056704;28;8036;-65
2020/12/23 04:44:32;;;;;;;;;;;;;;;;;;2058038;28;7009;-65
2020/12/23 04:45:35;;;;;;;;;;;;;;;;;;2062458;28;8012;-65
2020/12/23 04:46:41;;;;;;;;;;;;;;;;;;2053484;28;7026;-65
2020/12/23 04:47:45;;;;;;;;;;;;;;;;;;2056680;28;7140;-65
2020/12/23 04:48:54;;;;;;;;;;;;;;;;;;2054663;28;7285;-65
2020/12/23 04:49:57;;;;;;;;;;;;;;;;;;2056730;28;7050;-66
2020/12/23 04:51:03;;;;;;;;;;;;;;;;;;2055254;28;8063;-65
2020/12/23 04:52:07;;;;;;;;;;;;;;;;;;2055402;28;7177;-65
2020/12/23 04:53:10;;;;;;;;;;;;;;;;;;2054904;28;7009;-65
2020/12/23 04:54:12;;;;;;;;;;;;;;;;;;2063657;28;7009;-64
2020/12/23 04:55:14;;;;;;;;;;;;;;;;;;2057875;28;7962;-66
2020/12/23 04:56:17;;;;;;;;;;;;;;;;;;2063177;28;7998;-66
2020/12/23 04:57:20;;;;;;;;;;;;;;;;;;2063005;28;7246;-65
2020/12/23 04:58:23;;;;;;;;;;;;;;;;;;2057505;28;7006;-65
2020/12/23 04:59:26;;;;;;;;;;;;;;;;;;2061732;28;7010;-65
2020/12/23 05:00:28;;;;;;;;;;;;;;;;;;2057514;28;7034;-66
2020/12/23 05:01:30;;;;;;;;;;;;;;;;;;2059160;28;7085;-65
2020/12/23 05:02:32;;;;;;;;;;;;;;;;;;2060910;28;7046;-65
2020/12/23 05:03:51;;;;;;;;;;;;;;;;;;2059088;28;7010;-65
2020/12/23 05:04:53;;;;;;;;;;;;;;;;;;2056609;28;8061;-65
2020/12/23 05:05:56;;;;;;;;;;;;;;;;;;2060797;28;7093;-66
2020/12/23 05:07:04;;;;;;;;;;;;;;;;;;2058087;28;7042;-65
2020/12/23 05:08:06;;;;;;;;;;;;;;;;;;2055186;28;7042;-65
2020/12/23 05:09:08;;;;;;;;;;;;;;;;;;2059558;28;7139;-64
2020/12/23 05:10:10;;;;;;;;;;;;;;;;;;2061031;28;8072;-65
2020/12/23 05:11:13;;;;;;;;;;;;;;;;;;2060115;28;8072;-66
2020/12/23 05:12:17;;;;;;;;;;;;;;;;;;2061197;28;7042;-66
2020/12/23 05:13:19;;;;;;;;;;;;;;;;;;2058378;28;7009;-65
2020/12/23 05:14:21;;;;;;;;;;;;;;;;;;2058731;28;7002;-65
2020/12/23 05:15:23;;;;;;;;;;;;;;;;;;2057030;28;7140;-65
2020/12/23 05:16:25;;;;;;;;;;;;;;;;;;2056102;28;7093;-65
2020/12/23 05:17:30;;;;;;;;;;;;;;;;;;2054365;28;7159;-68
2020/12/23 05:18:37;;;;;;;;;;;;;;;;;;2056762;28;7093;-66
2020/12/23 05:19:40;;;;;;;;;;;;;;;;;;2056791;28;7010;-65
2020/12/23 05:20:45;;;;;;;;;;;;;;;;;;2061628;28;8028;-66
2020/12/23 05:21:47;;;;;;;;;;;;;;;;;;2061487;28;7010;-65
2020/12/23 05:22:50;;;;;;;;;;;;;;;;;;2059361;28;7133;-66
2020/12/23 05:23:53;;;;;;;;;;;;;;;;;;2056965;28;7261;-65
2020/12/23 05:24:56;;;;;;;;;;;;;;;;;;2061531;28;7013;-64
2020/12/23 05:26:04;;;;;;;;;;;;;;;;;;2062567;28;7005;-65
2020/12/23 05:27:07;;;;;;;;;;;;;;;;;;2058499;28;7354;-67
2020/12/23 05:28:10;;;;;;;;;;;;;;;;;;2057634;28;8112;-65
2020/12/23 05:29:14;;;;;;;;;;;;;;;;;;2056872;28;8108;-65
2020/12/23 05:30:17;;;;;;;;;;;;;;;;;;2057082;28;7041;-65
2020/12/23 05:31:20;;;;;;;;;;;;;;;;;;2045576;28;7113;-64
2020/12/23 05:32:23;;;;;;;;;;;;;;;;;;2046328;28;8040;-65
2020/12/23 05:33:26;;;;;;;;;;;;;;;;;;2045585;28;7113;-66
2020/12/23 05:34:28;;;;;;;;;;;;;;;;;;2047320;28;7009;-66
2020/12/23 05:35:29;;;;;;;;;;;;;;;;;;2042597;28;8021;-65
2020/12/23 05:36:32;;;;;;;;;;;;;;;;;;2041313;28;7009;-66
2020/12/23 05:37:34;;;;;;;;;;;;;;;;;;2042740;28;7096;-65
2020/12/23 05:38:37;;;;;;;;;;;;;;;;;;2046268;28;7109;-66
2020/12/23 05:39:42;;;;;;;;;;;;;;;;;;2042107;28;7096;-65
2020/12/23 05:40:44;;;;;;;;;;;;;;;;;;2042986;28;7374;-65
2020/12/23 05:41:46;;;;;;;;;;;;;;;;;;2039671;28;7089;-66
2020/12/23 05:42:49;;;;;;;;;;;;;;;;;;2043585;28;7045;-65
2020/12/23 05:43:51;;;;;;;;;;;;;;;;;;2040803;28;7017;-65
2020/12/23 05:44:54;;;;;;;;;;;;;;;;;;2043078;28;7061;-64
2020/12/23 05:46:01;;;;;;;;;;;;;;;;;;2044843;28;7010;-65
2020/12/23 05:47:04;;;;;;;;;;;;;;;;;;2040503;28;7013;-64
2020/12/23 05:48:10;;;;;;;;;;;;;;;;;;2039783;28;7038;-65
2020/12/23 05:49:14;;;;;;;;;;;;;;;;;;2040963;28;7014;-63
2020/12/23 05:50:15;;;;;;;;;;;;;;;;;;2043672;28;7013;-65
2020/12/23 05:51:17;;;;;;;;;;;;;;;;;;2044280;28;7046;-64
2020/12/23 05:52:21;;;;;;;;;;;;;;;;;;2045304;28;7092;-64
2020/12/23 05:53:27;;;;;;;;;;;;;;;;;;2041369;28;7102;-64
2020/12/23 05:54:29;;;;;;;;;;;;;;;;;;2049236;28;7133;-66
2020/12/23 05:55:31;;;;;;;;;;;;;;;;;;2050341;28;7034;-67
2020/12/23 05:56:37;;;;;;;;;;;;;;;;;;2042133;28;7306;-65
2020/12/23 05:57:39;;;;;;;;;;;;;;;;;;2043272;28;7089;-65
2020/12/23 05:58:41;;;;;;;;;;;;;;;;;;2047061;28;7046;-65
2020/12/23 05:59:43;;;;;;;;;;;;;;;;;;2038867;28;7029;-66
2020/12/23 06:00:46;;;;;;;;;;;;;;;;;;2042625;28;7306;-64
2020/12/23 06:01:49;;;;;;;;;;;;;;;;;;2045159;28;7046;-66
2020/12/23 06:03:11;;;;;;;;;;;;;;;;;;2041357;28;7133;-66
2020/12/23 06:04:15;;;;;;;;;;;;;;;;;;2041465;28;7117;-66
2020/12/23 06:05:32;;;;;;;;;;;;;;;;;;2041003;28;7080;-64
2020/12/23 06:06:35;;;;;;;;;;;;;;;;;;2040937;28;7092;-65
2020/12/23 06:07:41;;;;;;;;;;;;;;;;;;2040191;28;7010;-66
2020/12/23 06:08:49;;;;;;;;;;;;;;;;;;2042896;28;7006;-65
2020/12/23 06:09:57;;;;;;;;;;;;;;;;;;2040592;28;8953;-65
2020/12/23 06:11:11;;;;;;;;;;;;;;;;;;2040174;28;7093;-66
2020/12/23 06:12:22;;;;;;;;;;;;;;;;;;2039092;29;8108;-67
2020/12/23 06:13:39;;;;;;;;;;;;;;;;;;2043324;28;8109;-66
2020/12/23 06:14:50;;;;;;;;;;;;;;;;;;2045923;28;7137;-64
2020/12/23 06:15:57;;;;;;;;;;;;;;;;;;2042307;28;7088;-65
2020/12/23 06:16:58;;;;;;;;;;;;;;;;;;2042079;28;8115;-66
2020/12/23 06:18:01;;;;;;;;;;;;;;;;;;2041054;28;7093;-66
2020/12/23 06:19:08;;;;;;;;;;;;;;;;;;2041515;28;7046;-65
2020/12/23 06:20:10;;;;;;;;;;;;;;;;;;2044983;28;8574;-65
2020/12/23 06:21:16;;;;;;;;;;;;;;;;;;2043611;28;7010;-65
2020/12/23 06:22:18;;;;;;;;;;;;;;;;;;2043925;28;7042;-65
2020/12/23 06:23:26;;;;;;;;;;;;;;;;;;2039283;28;7009;-65
2020/12/23 06:24:28;;;;;;;;;;;;;;;;;;2042018;28;7046;-65
2020/12/23 06:25:32;;;;;;;;;;;;;;;;;;2045800;28;8156;-67
2020/12/23 06:26:35;;;;;;;;;;;;;;;;;;2039191;28;7014;-65
2020/12/23 06:27:40;;;;;;;;;;;;;;;;;;2046412;28;7531;-65
2020/12/23 06:28:55;;;;;;;;;;;;;;;;;;2040713;28;7294;-66
2020/12/23 06:29:57;;;;;;;;;;;;;;;;;;2042282;28;7052;-65
2020/12/23 06:31:00;;;;;;;;;;;;;;;;;;2055347;28;7133;-67
2020/12/23 06:32:03;;;;;;;;;;;;;;;;;;2058428;28;7084;-65
2020/12/23 06:33:05;;;;;;;;;;;;;;;;;;2057384;28;7034;-66
2020/12/23 06:34:12;;;;;;;;;;;;;;;;;;2056134;28;7042;-65
2020/12/23 06:35:14;;;;;;;;;;;;;;;;;;2055248;28;7009;-65
2020/12/23 06:36:16;;;;;;;;;;;;;;;;;;2059215;28;7112;-65
2020/12/23 06:37:19;;;;;;;;;;;;;;;;;;2056492;28;7092;-66
2020/12/23 06:38:22;;;;;;;;;;;;;;;;;;2057671;28;7894;-65
2020/12/23 06:39:26;;;;;;;;;;;;;;;;;;2059970;28;7046;-66
2020/12/23 06:40:28;;;;;;;;;;;;;;;;;;2059798;28;8043;-67
2020/12/23 06:41:30;;;;;;;;;;;;;;;;;;2061731;28;7009;-66
2020/12/23 06:42:32;;;;;;;;;;;;;;;;;;2063247;28;7038;-65
2020/12/23 06:43:53;;;;;;;;;;;;;;;;;;2055750;28;7041;-66
2020/12/23 06:44:56;;;;;;;;;;;;;;;;;;2061934;28;7097;-65
2020/12/23 06:45:58;;;;;;;;;;;;;;;;;;2058213;28;7030;-66
2020/12/23 06:47:00;;;;;;;;;;;;;;;;;;2060831;28;8045;-66
2020/12/23 06:48:16;;;;;;;;;;;;;;;;;;2057730;28;7025;-64
2020/12/23 06:49:18;;;;;;;;;;;;;;;;;;2056356;28;7006;-66
2020/12/23 06:50:23;;;;;;;;;;;;;;;;;;2056579;28;7096;-65
2020/12/23 06:51:40;;;;;;;;;;;;;;;;;;2056621;28;7049;-65
2020/12/23 06:52:44;;;;;;;;;;;;;;;;;;2055506;28;7014;-65
2020/12/23 06:53:46;;;;;;;;;;;;;;;;;;2058267;28;7010;-64
2020/12/23 06:55:05;;;;;;;;;;;;;;;;;;2060968;28;7355;-64
2020/12/23 06:56:07;;;;;;;;;;;;;;;;;;2057670;28;7093;-65
2020/12/23 06:57:09;;;;;;;;;;;;;;;;;;2056635;28;8119;-65
2020/12/23 06:58:31;;;;;;;;;;;;;;;;;;2061478;28;7009;-65
2020/12/23 06:59:47;;;;;;;;;;;;;;;;;;2055131;28;7014;-65
2020/12/23 07:00:49;;;;;;;;;;;;;;;;;;2057601;28;7010;-65
2020/12/23 07:01:51;;;;;;;;;;;;;;;;;;2057192;28;7097;-65
2020/12/23 07:02:57;;;;;;;;;;;;;;;;;;2055735;28;7093;-65
2020/12/23 07:04:01;;;;;;;;;;;;;;;;;;2061455;28;7093;-65
2020/12/23 07:05:03;;;;;;;;;;;;;;;;;;2055034;28;8123;-65
2020/12/23 07:06:30;;;;;;;;;;;;;;;;;;2053637;28;7017;-65
2020/12/23 07:07:32;;;;;;;;;;;;;;;;;;2058756;28;7380;-65
2020/12/23 07:08:35;;;;;;;;;;;;;;;;;;2059909;28;7046;-64
2020/12/23 07:09:37;;;;;;;;;;;;;;;;;;2055716;28;7050;-66
2020/12/23 07:10:47;;;;;;;;;;;;;;;;;;2058251;28;7206;-65
2020/12/23 07:11:53;;;;;;;;;;;;;;;;;;2053931;28;7026;-65
2020/12/23 07:12:57;;;;;;;;;;;;;;;;;;2054825;28;7093;-66
2020/12/23 07:14:00;;;;;;;;;;;;;;;;;;2055112;28;7093;-64
2020/12/23 07:15:10;;;;;;;;;;;;;;;;;;2056453;28;7017;-68
2020/12/23 07:16:12;;;;;;;;;;;;;;;;;;2057167;28;7040;-66
2020/12/23 07:17:14;;;;;;;;;;;;;;;;;;2056729;28;7093;-65
2020/12/23 07:18:18;;;;;;;;;;;;;;;;;;2061330;28;7349;-65
2020/12/23 07:19:23;;;;;;;;;;;;;;;;;;2053628;28;7045;-65
2020/12/23 07:20:25;;;;;;;;;;;;;;;;;;2054998;28;7006;-66
2020/12/23 07:21:27;;;;;;;;;;;;;;;;;;2057593;28;8020;-65